Elisabeth Mann Borge — DBKR — position and weather

sailwx.info

Track history (hours):
 
Tides and Currents Weather Stations Pressure Air Temp Water Temp Dewpoint Dewpoint Depression Visibility Wind Speed Wind Dir Waves Ship Positions

Elisabeth Mann Borge

Last reported at 2019-Mar-25 23:29 UTC. Time now 2019-Mar-25 23:54 UTC.
Position N 55°20' E 014°27'.

Length 57 m; draft 3.8 m.

Type: Other ship. MMSI: 211601000.

Date/timePositionNaut miles runAvg speedWind from/ knotsBaromVisibWave heightAir tempDewpointWater temp
2019-Mar-25 23:29N 55°20' E 014°27'4 8.6
2019-Mar-25 23:00N 55°24' E 014°30'2 5.7 290 / 171018.6 4.0 1.7 5.0
2019-Mar-25 22:37N 55°24' E 014°34'3 6.5
2019-Mar-25 22:13N 55°26' E 014°37'1 6.5
2019-Mar-25 22:00N 55°27' E 014°39'3268.1
2019-Mar-25 22:00N 55°30' E 014°42'2 3.1 300 / 81018.5 4.8 2.2 5.0
2019-Mar-25 21:26N 55°29' E 014°44'2 5.1
2019-Mar-25 21:00N 55°30' E 014°48'1129.2 1018.4 4.6 2.1 5.0
2019-Mar-25 20:59N 55°30' E 014°49'3 6.5
2019-Mar-25 20:31N 55°31' E 014°54'3 6.0
2019-Mar-25 20:01N 55°31' E 014°59'150.8
2019-Mar-25 20:00N 55°30' E 015°00'2 4.6 1018.0 4.4 2.7 5.1
2019-Mar-25 19:30N 55°30' E 015°04'3 6.6
2019-Mar-25 19:00N 55°28' E 015°09'2155.0
2019-Mar-25 19:00N 55°30' E 015°12'3 7.1 280 / 41017.5 4.6 2.3 5.2
2019-Mar-25 18:31N 55°27' E 015°14'3 6.5
2019-Mar-25 18:01N 55°25' E 015°19'3176.7
2019-Mar-25 18:00N 55°24' E 015°24'0 0.8 290 / 101016.5 4.4 3.0 5.0
2019-Mar-25 17:30N 55°24' E 015°25'3 5.9
2019-Mar-25 17:00N 55°24' E 015°30'135.4 300 / 101015.4 4.3 3.2 5.2
2019-Mar-25 16:57N 55°23' E 015°30'3 6.5
2019-Mar-25 16:30N 55°21' E 015°35'3 6.5
2019-Mar-25 16:01N 55°20' E 015°40'2135.3
2019-Mar-25 16:00N 55°18' E 015°42'2 4.1 320 / 61014.5 4.6 3.1 5.3
2019-Mar-25 15:30N 55°19' E 015°45'5 9.8
2019-Mar-25 15:00N 55°18' E 015°54'2 7.9 330 / 81013.5 4.5 2.7 5.5
2019-Mar-25 14:47N 55°17' E 015°52'3 6.0
2019-Mar-25 14:21N 55°16' E 015°56'3 8.8
2019-Mar-25 14:00N 55°18' E 016°00'7 6.8 330 / 61012.5 4.7 2.4 5.3
2019-Mar-25 13:00N 55°18' E 016°12'7 6.8 010 / 81012.0 4.4 2.7 5.5
2019-Mar-25 12:00N 55°18' E 016°24'3 3.4 350 / 81011.5 4.4 2.9 5.4
2019-Mar-25 11:00N 55°18' E 016°30'3 3.4 320 / 41010.9 4.5 2.5 5.0
2019-Mar-25 10:00N 55°18' E 016°36'2 4.7 260 / 81010.0 4.4 2.4 4.7
2019-Mar-25 09:34N 55°17' E 016°33'0 0.5
2019-Mar-25 09:30N 55°17' E 016°33'5 9.8
2019-Mar-25 09:00N 55°12' E 016°36'2 3.4 230 / 61009.5 5.1 2.9 4.7
2019-Mar-25 08:23N 55°13' E 016°33'2 5.1
2019-Mar-25 08:00N 55°12' E 016°36'310.9 220 / 81009.2 4.0 2.5 4.6
2019-Mar-25 07:44N 55°14' E 016°33'4 5.5
2019-Mar-25 07:00N 55°18' E 016°36'2 5.8 230 / 141008.9 4.1 2.5 4.6
2019-Mar-25 06:35N 55°16' E 016°33'1 1.6
2019-Mar-25 06:11N 55°17' E 016°33'210.1
2019-Mar-25 06:00N 55°18' E 016°36'2 7.0 220 / 121008.9 4.0 2.9 4.7
2019-Mar-25 05:45N 55°18' E 016°33'1 1.6
2019-Mar-25 05:18N 55°18' E 016°33'2 5.7
2019-Mar-25 05:00N 55°18' E 016°36'2 4.4 240 / 161009.2 4.1 2.8 4.6
2019-Mar-25 04:29N 55°20' E 016°33'1 1.6
2019-Mar-25 04:00N 55°20' E 016°33'31710.5
2019-Mar-25 04:00N 55°18' E 016°36'611.4 240 / 121009.7 4.1 2.8 4.6
2019-Mar-25 03:31N 55°23' E 016°33'1 1.7
2019-Mar-25 03:00N 55°24' E 016°32'189.5
2019-Mar-25 03:00N 55°24' E 016°30'2 2.4 260 / 161009.9 4.3 2.8 4.7
2019-Mar-25 02:21N 55°23' E 016°32'1 1.6
2019-Mar-25 02:00N 55°22' E 016°32'2125.0
2019-Mar-25 02:00N 55°24' E 016°30'3 5.2 260 / 171010.7 4.5 2.5 4.7
2019-Mar-25 01:31N 55°22' E 016°32'1 1.7
2019-Mar-25 01:01N 55°21' E 016°31'3170.5
2019-Mar-25 01:00N 55°18' E 016°30'2 3.8 250 / 161011.7 4.4 2.5 4.6
2019-Mar-25 00:29N 55°20' E 016°31'1 1.7
2019-Mar-25 00:00N 55°19' E 016°31'182.8
2019-Mar-25 00:00N 55°18' E 016°30'0 0.7 250 / 161012.7 4.4 2.4 4.7
2019-Mar-24 23:30N 55°18' E 016°30'1 1.6
2019-Mar-24 23:00N 55°17' E 016°30'137.6
2019-Mar-24 23:00N 55°18' E 016°30'2 2.2 250 / 171013.8 4.3 2.6 4.7
2019-Mar-24 22:08N 55°16' E 016°30'213.8
2019-Mar-24 22:00N 55°18' E 016°30'213.3 240 / 171014.6 4.4 2.4 4.6
2019-Mar-24 21:48N 55°16' E 016°30'1 1.7
2019-Mar-24 21:31N 55°15' E 016°30'3 5.9
2019-Mar-24 21:00N 55°12' E 016°30'253.2 250 / 191015.6 4.4 2.4 4.6
2019-Mar-24 20:57N 55°14' E 016°30'1 1.6
2019-Mar-24 20:27N 55°13' E 016°30'1 1.6
2019-Mar-24 20:01N 55°13' E 016°30'134.9
2019-Mar-24 20:00N 55°12' E 016°30'0 0.7 250 / 211016.5 4.3 2.9 4.7
2019-Mar-24 19:25N 55°12' E 016°30'1 1.6
2019-Mar-24 19:01N 55°11' E 016°30'164.0
2019-Mar-24 19:00N 55°12' E 016°30'2 3.3 250 / 191017.5 4.3 3.0 4.7
2019-Mar-24 18:23N 55°10' E 016°30'1 1.6
2019-Mar-24 18:01N 55°09' E 016°30'3157.8
2019-Mar-24 18:00N 55°12' E 016°30'3 7.0 250 / 211017.9 4.4 2.9 4.7
2019-Mar-24 17:30N 55°09' E 016°30'1 1.6
2019-Mar-24 17:00N 55°08' E 016°30'2324.7
2019-Mar-24 17:00N 55°06' E 016°30'1 2.1 250 / 211018.7 4.5 3.2 4.7
2019-Mar-24 16:30N 55°07' E 016°30'917.2
2019-Mar-24 16:00N 55°12' E 016°18'460.0 240 / 161019.5 4.8 2.9 5.0
2019-Mar-24 15:56N 55°09' E 016°22'511.3
2019-Mar-24 15:29N 55°11' E 016°14'816.7
2019-Mar-24 15:00N 55°12' E 016°00'3510.1 250 / 141020.4 5.1 2.9 5.0
2019-Mar-24 14:59N 55°13' E 016°05'4 8.2
2019-Mar-24 14:30N 55°15' E 015°59'0 0.1
2019-Mar-24 14:00N 55°15' E 015°59'3206.7
2019-Mar-24 14:00N 55°18' E 016°00'3 5.0 250 / 141021.1 4.7 2.9 5.1
2019-Mar-24 13:25N 55°15' E 016°00'1 1.8
2019-Mar-24 13:00N 55°15' E 016°01'3516.1
2019-Mar-24 13:00N 55°18' E 016°00'3 6.1 250 / 141021.7 4.4 2.8 5.0
2019-Mar-24 12:29N 55°15' E 016°03'3 6.3
2019-Mar-24 12:00N 55°18' E 016°06'3124.3 270 / 161022.8 4.4 2.6 5.0
2019-Mar-24 11:58N 55°16' E 016°05'1 1.7
2019-Mar-24 11:27N 55°16' E 016°06'2 5.0
2019-Mar-24 11:00N 55°18' E 016°06'249.5 270 / 171023.1 4.2 2.3 5.0
2019-Mar-24 10:57N 55°16' E 016°08'1 1.6
2019-Mar-24 10:20N 55°16' E 016°09'1 1.6
2019-Mar-24 10:00N 55°16' E 016°10'2232.2
2019-Mar-24 10:00N 55°18' E 016°12'2 3.5 270 / 161023.6 4.2 2.0 5.0
2019-Mar-24 09:30N 55°16' E 016°12'1 1.6
2019-Mar-24 09:01N 55°16' E 016°13'299.7
2019-Mar-24 09:00N 55°18' E 016°12'2 3.9 290 / 161024.0 4.1 2.1 4.9
2019-Mar-24 08:30N 55°17' E 016°14'1 1.6
2019-Mar-24 08:00N 55°17' E 016°16'2118.0
2019-Mar-24 08:00N 55°18' E 016°18'1 2.1 290 / 171024.2 4.1 2.1 4.9
2019-Mar-24 07:25N 55°17' E 016°17'1 1.6
2019-Mar-24 07:01N 55°17' E 016°18'162.6
2019-Mar-24 07:00N 55°18' E 016°18'1 2.6 290 / 171024.3 4.2 2.1 4.9
2019-Mar-24 06:27N 55°17' E 016°20'2 5.2
2019-Mar-24 06:00N 55°18' E 016°24'2166.4 290 / 171024.4 4.2 2.0 5.0
2019-Mar-24 05:59N 55°17' E 016°21'1 1.5
2019-Mar-24 05:30N 55°17' E 016°23'1 2.0
2019-Mar-24 05:00N 55°18' E 016°24'0 5.7 290 / 191024.5 4.3 1.8 4.8
2019-Mar-24 04:55N 55°18' E 016°24'1 1.5
2019-Mar-24 04:30N 55°18' E 016°25'1 1.5
2019-Mar-24 04:01N 55°18' E 016°26'188.6
2019-Mar-24 04:00N 55°18' E 016°24'2 4.7 290 / 191024.3 4.4 1.7 4.7
2019-Mar-24 03:31N 55°17' E 016°28'1 2.8
2019-Mar-24 03:00N 55°18' E 016°30'114.7 290 / 191024.3 4.4 1.7 4.7
2019-Mar-24 02:55N 55°17' E 016°29'1 1.5
2019-Mar-24 02:28N 55°17' E 016°30'1 1.6
2019-Mar-24 01:58N 55°16' E 016°32'1 1.6
2019-Mar-24 01:30N 55°16' E 016°33'3 5.1
2019-Mar-24 01:00N 55°18' E 016°36'210.4 280 / 191024.2 4.7 1.5 4.6
2019-Mar-24 00:46N 55°16' E 016°35'0 1.7
2019-Mar-24 00:29N 55°16' E 016°36'2 4.6
2019-Mar-24 00:00N 55°18' E 016°36'272.2 270 / 191024.7 5.0 1.4 4.6
2019-Mar-23 23:57N 55°16' E 016°37'1 1.5
2019-Mar-23 23:29N 55°15' E 016°38'3 6.6
2019-Mar-23 23:00N 55°18' E 016°42'0 0.0 280 / 211024.6 5.2 1.3 4.5
2019-Mar-23 22:00N 55°18' E 016°42'7 6.9 280 / 161024.8 5.0 1.7 4.7
2019-Mar-23 21:00N 55°12' E 016°48'0 0.0 300 / 191024.7 5.5 1.3 4.6
2019-Mar-23 20:00N 55°12' E 016°48'3 3.4 280 / 191024.5 5.8 1.9 4.7
2019-Mar-23 19:00N 55°12' E 016°54'0 0.0 280 / 171024.1 5.6 2.1 4.7
2019-Mar-23 18:00N 55°12' E 016°54'0 0.0 270 / 171023.5 5.5 2.8 4.7
2019-Mar-23 17:00N 55°12' E 016°54'3 4.5 250 / 171023.3 4.9 4.2 4.7
2019-Mar-23 16:23N 55°14' E 016°58'2 5.1
2019-Mar-23 16:00N 55°12' E 017°00'0 0.0 250 / 171022.9 4.9 4.4 4.5
2019-Mar-23 15:00N 55°12' E 017°00'3 3.4 250 / 171022.9 4.8 4.5 4.6
2019-Mar-23 14:00N 55°12' E 017°06'1 4.1 250 / 191023.1 4.5 4.3 4.6
2019-Mar-23 13:38N 55°13' E 017°04'0 0.8
2019-Mar-23 13:31N 55°13' E 017°04'4 8.9
2019-Mar-23 13:00N 55°14' E 016°56'2141.9
2019-Mar-23 13:00N 55°12' E 016°54'510.5 240 / 161023.2 5.0 4.4 4.7
2019-Mar-23 12:30N 55°15' E 016°47'713.2
2019-Mar-23 12:00N 55°18' E 016°36'2165.2 250 / 171022.8 4.9 4.5 4.8
2019-Mar-23 11:59N 55°16' E 016°36'4 4.8
2019-Mar-23 11:03N 55°17' E 016°28'346.9
2019-Mar-23 11:00N 55°18' E 016°24'2 7.4 240 / 141022.7 5.0 5.0 5.0
2019-Mar-23 10:45N 55°16' E 016°23'1012.9
2019-Mar-23 10:00N 55°18' E 016°06'3 9.5 240 / 171023.2 5.0 5.0 5.0
2019-Mar-23 09:40N 55°15' E 016°03'210.6
2019-Mar-23 09:30N 55°15' E 016°00'1 1.5
2019-Mar-23 09:00N 55°15' E 015°59'3192.8
2019-Mar-23 09:00N 55°12' E 016°00'3 6.4 230 / 191022.7 5.2 5.1 5.1
2019-Mar-23 08:30N 55°15' E 015°59'5 9.6
2019-Mar-23 08:00N 55°18' E 016°06'1413.7 220 / 251023.0 5.4 5.1 4.9
2019-Mar-23 07:00N 55°18' E 016°30'3 3.4 210 / 231023.6 5.7 5.2 4.9
2019-Mar-23 06:00N 55°18' E 016°36'3 3.4 190 / 191023.9 5.8 4.9 4.6
2019-Mar-23 05:00N 55°18' E 016°42'2 9.8 210 / 191024.6 5.6 4.8 4.6
2019-Mar-23 04:50N 55°16' E 016°43'2 6.9
2019-Mar-23 04:31N 55°16' E 016°47'4 7.1
2019-Mar-23 04:00N 55°16' E 016°53'2513.2
2019-Mar-23 04:00N 55°18' E 016°54'6 7.1 200 / 171025.1 5.4 4.5 4.5
2019-Mar-23 03:11N 55°15' E 017°03'316.7
2019-Mar-23 03:00N 55°18' E 017°06'2 8.0 190 / 171025.7 5.2 3.8 4.5
2019-Mar-23 02:41N 55°16' E 017°07'1 6.0
2019-Mar-23 02:27N 55°16' E 017°10'511.8
2019-Mar-23 02:00N 55°18' E 017°18'3323.8 190 / 171026.3 5.1 2.7 4.6
2019-Mar-23 01:59N 55°15' E 017°14'4 5.0
2019-Mar-23 01:11N 55°15' E 017°21'316.8
2019-Mar-23 01:00N 55°18' E 017°24'3 8.4 190 / 211027.1 5.1 2.0 4.6
2019-Mar-23 00:39N 55°16' E 017°28'5 7.6
2019-Mar-23 00:00N 55°18' E 017°36'1010.2 180 / 161028.3 4.8 0.2 4.7
2019-Mar-22 23:00N 55°18' E 017°54'1 5.3 170 / 191028.7 4.5 1.2 4.8
2019-Mar-22 22:51N 55°18' E 017°53'1 3.0
2019-Mar-22 22:22N 55°19' E 017°56'616.0
2019-Mar-22 22:00N 55°18' E 018°06'2113.9 160 / 191029.7 4.4 1.2 4.5
2019-Mar-22 21:58N 55°19' E 018°02'6 5.8
2019-Mar-22 21:00N 55°18' E 018°12'9 9.9 150 / 191030.5 4.3 0.5 4.6
2019-Mar-22 20:02N 55°27' E 018°19'357.8
2019-Mar-22 20:00N 55°24' E 018°18'376.8 140 / 171031.1 3.9 1.1 4.6
2019-Mar-22 19:57N 55°27' E 018°19'2 4.0
2019-Mar-22 19:31N 55°28' E 018°21'510.2
2019-Mar-22 19:00N 55°33' E 018°24'3541.3
2019-Mar-22 19:00N 55°30' E 018°24'9 9.1 150 / 141031.4 3.8 1.3 4.6
2019-Mar-22 18:00N 55°36' E 018°36'3 3.3 170 / 121032.4 3.8 1.9 4.8
2019-Mar-22 17:13N 55°38' E 018°37'519.8
2019-Mar-22 17:00N 55°42' E 018°42'246.9 180 / 81032.6 3.8 2.4 4.8
2019-Mar-22 16:57N 55°41' E 018°40'4 8.6
2019-Mar-22 16:28N 55°44' E 018°46'5 9.6
2019-Mar-22 16:00N 55°48' E 018°48'213.2 140 / 81033.2 4.1 1.9 4.7
2019-Mar-22 15:52N 55°46' E 018°48'410.3
2019-Mar-22 15:29N 55°50' E 018°51'4 8.9
2019-Mar-22 15:00N 55°54' E 018°54'1 3.8 120 / 41033.9 4.2 2.1 5.2
2019-Mar-22 14:36N 55°53' E 018°56'111.7
2019-Mar-22 14:30N 55°54' E 018°58'4 8.6
2019-Mar-22 14:00N 55°57' E 019°03'3444.4
2019-Mar-22 14:00N 56°00' E 019°00'4 4.5 1034.3 5.0 1.9 5.0
2019-Mar-22 13:13N 56°01' E 018°54'211.4
2019-Mar-22 13:00N 56°03' E 018°51'4259.6
2019-Mar-22 13:00N 56°06' E 018°48'3 5.9 010 / 41034.7 4.1 2.4 4.6
2019-Mar-22 12:29N 56°07' E 018°43'918.0
2019-Mar-22 12:00N 56°12' E 018°30'1 2.7 1034.7 4.3 2.4 4.5
2019-Mar-22 11:44N 56°12' E 018°31'411.4
2019-Mar-22 11:23N 56°15' E 018°26'411.4
2019-Mar-22 11:00N 56°17' E 018°19'167.5
2019-Mar-22 11:00N 56°18' E 018°18'5 9.7 300 / 61034.9 4.2 2.4 4.0
2019-Mar-22 10:30N 56°21' E 018°11'713.7
2019-Mar-22 10:00N 56°24' E 018°00'328.8 320 / 41034.6 3.7 2.1 3.6
2019-Mar-22 09:54N 56°26' E 018°03'511.5
2019-Mar-22 09:28N 56°30' E 017°58'816.9
2019-Mar-22 09:00N 56°36' E 017°48'3 6.5 340 / 61034.0 3.5 2.2 3.6
2019-Mar-22 08:35N 56°39' E 017°48'1219.2
2019-Mar-22 08:00N 56°48' E 017°36'4 5.3 010 / 61034.0 4.0 2.3 4.0
2019-Mar-22 07:16N 56°51' E 017°32'413.6
2019-Mar-22 07:00N 56°54' E 017°36'1212.4 320 / 121033.1 3.4 2.3 3.8
2019-Mar-22 06:00N 57°06' E 017°42'7 6.8 300 / 81032.1 3.1 2.1 3.4
2019-Mar-22 05:00N 57°12' E 017°36'1212.0 300 / 81031.4 2.8 2.1 3.4
2019-Mar-22 04:00N 57°24' E 017°36'7 6.8 360 / 61030.0 3.2 2.0 3.4
2019-Mar-22 03:00N 57°30' E 017°42'1212.4 310 / 61029.5 3.2 2.2 3.3
2019-Mar-22 02:00N 57°42' E 017°48'1212.4 290 / 81028.3 3.0 2.1 3.4
2019-Mar-22 01:00N 57°54' E 017°54'7 6.8 320 / 61027.2 3.1 2.0 3.4
2019-Mar-22 00:00N 58°00' E 018°00'7 6.8 030 / 81026.1 3.6 2.0 3.6
2019-Mar-21 23:00N 58°06' E 018°06'9 8.7 030 / 161024.6 4.0 2.1 3.5
2019-Mar-21 22:00N 58°12' E 018°18'1413.6 020 / 271022.7 4.2 2.4 3.2
2019-Mar-21 21:00N 58°24' E 018°30'9 8.7 290 / 271020.4 5.5 3.9 2.8
2019-Mar-21 20:00N 58°30' E 018°42'1515.2 290 / 191018.8 5.2 3.6 2.8
2019-Mar-21 19:00N 58°42' E 019°00'7 6.8 290 / 161017.7 4.2 2.8 2.7
2019-Mar-21 18:00N 58°48' E 019°06'6 6.2 300 / 161017.0 4.6 3.0 2.5
2019-Mar-21 17:00N 58°48' E 019°18'1111.1 290 / 171015.1 5.5 3.3 2.5
2019-Mar-21 16:00N 58°54' E 019°36'1111.1 280 / 141014.3 4.0 2.7 2.6
2019-Mar-21 15:00N 59°00' E 019°54'9 9.3 250 / 141013.8 4.0 2.8 3.2
2019-Mar-21 14:00N 59°00' E 020°12'7 6.8 240 / 231013.7 4.3 3.0 3.0
2019-Mar-21 13:00N 58°54' E 020°18'6 6.0 240 / 231014.5 4.1 3.0 3.2
2019-Mar-21 12:00N 58°48' E 020°18'6 6.0 230 / 211015.6 3.9 3.0 3.4
2019-Mar-21 11:00N 58°42' E 020°18'6 6.0 230 / 271016.5 4.1 2.7 3.4
2019-Mar-21 10:00N 58°36' E 020°18'1212.0 240 / 231017.1 3.7 2.3 3.4
2019-Mar-21 09:00N 58°24' E 020°18'3 3.1 240 / 211018.0 3.8 2.1 3.2
2019-Mar-21 08:00N 58°24' E 020°12'7 6.8 240 / 211019.4 3.8 2.0 3.1
2019-Mar-21 07:00N 58°18' E 020°06'6 6.0 240 / 171020.0 3.6 1.6 3.3
2019-Mar-21 06:00N 58°12' E 020°06'1413.6 250 / 211020.4 3.7 1.5 3.1
2019-Mar-21 05:00N 58°00' E 019°54'0 0.0 250 / 141020.8 3.4 1.7 3.1
2019-Mar-21 04:00N 58°00' E 019°54'6 6.0 250 / 121021.2 3.4 1.5 3.3
2019-Mar-21 03:00N 57°54' E 019°54'3 3.2 270 / 161021.4 3.6 1.6 3.1
2019-Mar-21 02:00N 57°54' E 019°48'1212.4 270 / 161021.8 3.6 1.6 3.2
2019-Mar-21 01:00N 57°42' E 019°54'9 8.8 270 / 141022.3 3.8 2.2 3.3
2019-Mar-21 00:00N 57°36' E 020°06'3 3.2 270 / 161022.5 4.0 2.4 3.5
2019-Mar-20 23:00N 57°36' E 020°12'7 6.8 260 / 171022.2 4.0 2.7 4.0
2019-Mar-20 22:00N 57°30' E 020°18'7 6.8 260 / 171022.0 4.2 2.7 4.1
2019-Mar-20 21:00N 57°24' E 020°24'9 8.8 280 / 161022.0 4.5 3.0 4.0
2019-Mar-20 20:00N 57°18' E 020°36'9 8.8 280 / 191021.5 4.4 3.1 4.1
2019-Mar-20 19:00N 57°12' E 020°48'7 6.5 270 / 211020.8 4.3 3.1 4.0
2019-Mar-20 18:00N 57°12' E 021°00'7 6.8 260 / 231020.3 4.0 3.0 4.0
2019-Mar-20 17:00N 57°06' E 021°06'0 0.0 260 / 311019.9 3.8 2.9 3.7
2019-Mar-20 16:00N 57°06' E 021°06'3 3.3 250 / 291019.7 3.4 2.9 3.7
2019-Mar-20 15:00N 57°06' E 021°00'7 6.5 230 / 311019.8 3.4 2.7 4.0
2019-Mar-20 14:00N 57°06' E 020°48'9 8.9 220 / 331019.4 3.3 2.4 4.1
2019-Mar-20 13:00N 57°12' E 020°36'3 3.3 220 / 291020.5 3.7 1.5 4.1
2019-Mar-20 12:00N 57°12' E 020°30'9 8.8 220 / 271021.4 3.6 1.6 4.1
2019-Mar-20 11:00N 57°18' E 020°18'6 6.5 230 / 271021.5 3.6 1.6 4.1
2019-Mar-20 10:00N 57°18' E 020°06'3 3.2 230 / 251022.2 3.4 1.1 3.9
2019-Mar-20 09:00N 57°18' E 020°00'9 8.8 220 / 251022.5 3.5 0.3 3.9
2019-Mar-20 08:00N 57°24' E 019°48'6 6.5 220 / 211022.6 3.4-0.0 3.9
2019-Mar-20 07:00N 57°24' E 019°36'6 6.5 220 / 171022.7 3.2-0.1 3.5
2019-Mar-20 06:00N 57°24' E 019°24'0 0.0 230 / 171023.1 2.8-0.3 3.5
2019-Mar-20 05:00N 57°24' E 019°24'7 6.8 230 / 171023.0 3.0-0.0 3.5
2019-Mar-20 04:00N 57°18' E 019°18'7 6.8 240 / 141023.5 2.7-0.2 3.8
2019-Mar-20 03:00N 57°12' E 019°12'9 8.9 260 / 141024.0 2.8-0.2 3.6
2019-Mar-20 02:00N 57°06' E 019°00'9 8.9 260 / 141024.2 2.8-0.4 3.8
2019-Mar-20 01:00N 57°00' E 019°12'7 6.5 260 / 121024.5 3.1-0.2 3.7
2019-Mar-20 00:00N 57°00' E 019°24'3 3.3 260 / 101024.3 3.0 0.2 3.8
2019-Mar-19 23:00N 57°00' E 019°30'7 6.5 260 / 101023.9 3.1 0.2 3.7
2019-Mar-19 22:00N 57°00' E 019°42'3 3.3 260 / 121023.8 3.0 0.3 3.7
2019-Mar-19 21:00N 57°00' E 019°48'9 8.9 260 / 121023.3 2.8 0.2 3.7
2019-Mar-19 20:00N 56°54' E 020°00'3 3.3 250 / 101023.1 2.8 0.1 3.9
2019-Mar-19 19:00N 56°54' E 020°06'7 6.6 270 / 81022.6 2.5-1.1 4.2
2019-Mar-19 18:00N 56°54' E 020°18'7 6.6 320 / 101021.8 2.3-1.7 4.2
2019-Mar-19 17:00N 56°54' E 020°30'9 8.9 310 / 171021.1 2.0-2.7 4.2
2019-Mar-19 16:00N 56°48' E 020°42'1212.4 300 / 171020.2 1.9-1.9 4.2
2019-Mar-19 15:00N 57°00' E 020°36'7 6.8 300 / 171019.5 1.5-0.3 4.2
2019-Mar-19 14:00N 57°06' E 020°30'1212.4 310 / 171018.5 2.0-0.8 3.9
2019-Mar-19 13:00N 57°18' E 020°24'7 6.8 320 / 211017.3 1.8-1.0 4.0
2019-Mar-19 12:00N 57°24' E 020°18'0 0.0 320 / 191016.4 1.7-0.7 4.0
2019-Mar-19 11:00N 57°24' E 020°18'0 0.0 320 / 211015.5 1.6-0.5 4.0
2019-Mar-19 10:00N 57°24' E 020°18'1111.4 320 / 231014.0 1.9-0.0 3.9
2019-Mar-19 09:00N 57°18' E 020°00'3 3.2 320 / 211013.2 1.5-0.0 4.0
2019-Mar-19 08:00N 57°18' E 020°06'0 0.0 320 / 191011.9 1.2-0.0 4.0
2019-Mar-19 07:00N 57°18' E 020°06'9 8.8 320 / 191010.9 1.3-0.0 4.0
2019-Mar-19 06:00N 57°12' E 019°54'6 6.0 320 / 171010.3 1.1-0.1 3.9
2019-Mar-19 05:00N 57°06' E 019°54'3 3.3 310 / 231009.4 1.6-0.4 4.0
2019-Mar-19 04:00N 57°06' E 019°48'1212.4 300 / 211008.5 1.9-0.4 4.0
2019-Mar-19 03:00N 56°54' E 019°54'7 6.8 300 / 171008.2 1.4-0.9 3.9
2019-Mar-19 02:00N 56°48' E 019°48'3 3.3 300 / 211007.4 2.1-0.2 3.9
2019-Mar-19 01:00N 56°48' E 019°42'1212.4 290 / 171006.8 2.6 0.3 3.8
2019-Mar-19 00:00N 56°36' E 019°36'7 6.9 300 / 161006.3 2.5 0.4 4.1
2019-Mar-18 23:00N 56°30' E 019°30'7 6.9 300 / 211005.6 3.1 0.4 4.3
2019-Mar-18 22:00N 56°24' E 019°24'6 6.0 290 / 191005.1 3.5 0.6 4.1
2019-Mar-18 21:00N 56°18' E 019°24'7 6.9 290 / 211004.3 3.7 0.4 4.2
2019-Mar-18 20:00N 56°12' E 019°18'7 6.9 250 / 211003.8 3.8 2.0 4.1
2019-Mar-18 19:00N 56°06' E 019°12'0 0.0 250 / 271003.2 4.2 1.7 4.4
2019-Mar-18 18:00N 56°06' E 019°12'3 3.3 230 / 251002.4 4.2 2.1 4.4
2019-Mar-18 17:00N 56°06' E 019°06'7 6.9 230 / 231001.9 5.4 2.6 4.5
2019-Mar-18 16:00N 56°00' E 019°00'9 9.0 230 / 271001.1 4.6 2.2 4.4
2019-Mar-18 15:00N 55°54' E 018°48'3 3.4 230 / 271000.6 4.9 2.1 4.2
2019-Mar-18 14:00N 55°54' E 018°42'9 9.0 220 / 351000.3 4.5 2.0 4.3
2019-Mar-18 13:00N 55°48' E 018°30'9 9.0 220 / 331000.4 4.2 2.0 4.3
2019-Mar-18 12:00N 55°42' E 018°18'9 9.0 220 / 331000.4 4.4 1.8 4.4
2019-Mar-18 11:00N 55°36' E 018°06'9 9.1 230 / 371000.1 4.8 1.2 4.3
2019-Mar-18 10:00N 55°30' E 017°54'7 6.9 230 / 37999.3 4.8 1.0 4.3
2019-Mar-18 09:00N 55°24' E 017°48'7 6.8 220 / 33999.3 4.8 1.0 4.4
2019-Mar-18 08:00N 55°24' E 017°36'7 6.9 220 / 33999.4 4.4 1.0 4.3
2019-Mar-18 07:00N 55°18' E 017°30'9 9.1 220 / 33999.2 4.4 0.8 4.3
2019-Mar-18 06:00N 55°12' E 017°18'7 6.9 220 / 31999.2 4.3 1.0 4.3
2019-Mar-18 05:00N 55°18' E 017°24'0 0.0 220 / 33998.7 4.4 1.3 4.3
2019-Mar-18 04:00N 55°18' E 017°24'7 6.9 220 / 29998.7 4.4 1.1 4.3
2019-Mar-18 03:00N 55°12' E 017°18'7 6.8 220 / 33998.8 4.4 1.4 4.4
2019-Mar-18 02:00N 55°12' E 017°06'7 6.8 220 / 33998.3 4.6 1.7 4.4
2019-Mar-18 01:00N 55°12' E 016°54'3 3.4 220 / 29998.6 4.6 2.3 4.7
2019-Mar-18 00:00N 55°12' E 016°48'9 9.1 220 / 29998.7 4.8 2.0 4.7
2019-Mar-17 23:00N 55°18' E 016°36'7 6.8 230 / 31997.9 5.1 1.4 4.7
2019-Mar-17 22:00N 55°18' E 016°24'3 3.4 230 / 25997.3 5.1 1.8 4.6
2019-Mar-17 21:00N 55°18' E 016°18'7 6.9 220 / 23997.7 5.0 2.9 4.7
2019-Mar-17 20:00N 55°12' E 016°12'9 9.1 220 / 23997.5 5.1 2.9 4.7
2019-Mar-17 19:00N 55°18' E 016°00'0 0.0 220 / 21996.7 5.0 3.0 4.7
2019-Mar-17 18:00N 55°18' E 016°00'0 0.0 210 / 19996.2 5.1 2.7 4.7
2019-Mar-17 17:00N 55°18' E 016°00'7 6.9 220 / 23996.0 5.3 2.9 4.7
2019-Mar-17 16:00N 55°12' E 015°54'8 8.6 230 / 23995.5 5.0 2.9 4.7
2019-Mar-17 15:03N 55°10' E 015°40'245.4
2019-Mar-17 15:00N 55°12' E 015°42'3702.1 230 / 19995.1 5.0 3.0 4.8
2019-Mar-17 14:59N 55°10' E 015°39'4 5.0
2019-Mar-17 14:14N 55°13' E 015°43'624.8
2019-Mar-17 14:00N 55°18' E 015°48'0 0.3 220 / 19993.9 4.9 3.3 4.7
2019-Mar-17 13:32N 55°18' E 015°48'0 0.2
2019-Mar-17 13:30N 55°18' E 015°48'3 5.7
2019-Mar-17 13:00N 55°19' E 015°43'175.3
2019-Mar-17 13:00N 55°18' E 015°42'3 7.1 240 / 19993.6 5.2 3.5 4.7
2019-Mar-17 12:31N 55°20' E 015°37'3 6.3
2019-Mar-17 12:00N 55°20' E 015°31'3246.2
2019-Mar-17 12:00N 55°18' E 015°30'3 6.4 250 / 23992.9 5.9 3.7 4.7
2019-Mar-17 11:31N 55°21' E 015°28'5 9.9
2019-Mar-17 11:01N 55°23' E 015°20'292.5
2019-Mar-17 11:00N 55°24' E 015°18'1 1.1 210 / 23991.3 7.3 3.7 4.7
2019-Mar-17 10:30N 55°24' E 015°19'4 8.6
2019-Mar-17 10:01N 55°27' E 015°14'3181.0
2019-Mar-17 10:00N 55°30' E 015°12'2 3.8 210 / 27990.9 7.2 3.7 4.7
2019-Mar-17 09:31N 55°28' E 015°11'4 7.3
2019-Mar-17 09:00N 55°30' E 015°06'023.4
2019-Mar-17 09:00N 55°30' E 015°06'2 4.1 210 / 29990.6 7.0 3.7 4.7
2019-Mar-17 08:30N 55°30' E 015°03'5 9.1
2019-Mar-17 08:00N 55°32' E 014°55'1 2.2
2019-Mar-17 07:31N 55°31' E 014°53'612.5
2019-Mar-17 07:00N 55°30' E 014°42'7 6.9 200 / 27990.3 6.3 3.7 4.6
2019-Mar-17 06:00N 55°24' E 014°36'7 6.9 200 / 31990.4 5.9 3.9 4.6
2019-Mar-17 05:00N 55°18' E 014°30'2 2.4 200 / 29991.2 6.1 4.0 4.6
2019-Mar-17 04:17N 55°16' E 014°31'1 4.0
2019-Mar-17 04:01N 55°15' E 014°30'3155.2
2019-Mar-17 04:00N 55°18' E 014°30'4 8.4 200 / 27991.6 6.3 4.1 4.6
2019-Mar-17 03:30N 55°14' E 014°28'611.1
2019-Mar-17 03:00N 55°11' E 014°19'1100.3
2019-Mar-17 03:00N 55°12' E 014°18'3 5.4 200 / 25992.5 6.1 4.3 4.7
2019-Mar-17 02:30N 55°10' E 014°15'4 8.5
2019-Mar-17 02:00N 55°06' E 014°12'265.6 200 / 21993.5 5.8 4.4 4.6
2019-Mar-17 01:58N 55°08' E 014°14'711.3
2019-Mar-17 01:18N 55°01' E 014°07'2 5.4
2019-Mar-17 01:00N 55°00' E 014°05'1161.1
2019-Mar-17 01:00N 55°00' E 014°06'1 1.0 200 / 19994.1 5.7 5.1 4.7
2019-Mar-17 00:26N 55°00' E 014°05'715.0
2019-Mar-17 00:00N 55°06' E 014°00'7 6.9 200 / 23994.5 5.7 5.2 4.7
2019-Mar-16 23:00N 55°06' E 013°48'9 9.1 200 / 23995.0 5.3 4.7 4.7
2019-Mar-16 22:00N 55°00' E 013°36'7 6.9 190 / 23995.7 4.9 4.2 4.7
2019-Mar-16 21:00N 55°00' E 013°48'7 6.9 180 / 21996.6 4.2 3.6 4.7
2019-Mar-16 20:00N 54°54' E 013°54'6 6.0 170 / 21997.9 3.9 3.1 4.6
2019-Mar-16 19:00N 54°48' E 013°54'3 3.5 180 / 23999.4 3.8 2.7 4.7
2019-Mar-16 18:00N 54°48' E 013°48'7 6.9 180 / 191000.1 4.0 2.4 4.8
2019-Mar-16 17:00N 54°48' E 013°36'7 6.9 210 / 191000.6 4.1 2.0 4.8
2019-Mar-16 16:00N 54°54' E 013°30'3 3.5 240 / 171000.9 4.8 2.1 4.7
2019-Mar-16 15:00N 54°54' E 013°24'9 9.2 230 / 161001.3 5.1 2.6 4.7
2019-Mar-16 14:00N 54°48' E 013°12'7 6.9 230 / 171001.5 5.0 2.8 4.8
2019-Mar-16 13:00N 54°48' E 013°00'9 9.2 240 / 191001.8 5.0 3.1 4.7
2019-Mar-16 12:00N 54°42' E 012°48'3 3.5 240 / 171002.1 5.2 3.2 5.0
2019-Mar-16 11:00N 54°42' E 012°42'9 8.9 260 / 191002.3 6.9 3.3 5.1
2019-Mar-16 10:00N 54°39' E 012°27'3483.8
2019-Mar-16 10:00N 54°42' E 012°30'5 9.3 260 / 211002.3 5.7 2.7 5.2
2019-Mar-16 09:30N 54°38' E 012°26'510.8
2019-Mar-16 09:01N 54°34' E 012°19'296.7
2019-Mar-16 09:00N 54°36' E 012°18'3 6.8 250 / 211002.2 5.6 3.1 5.2
2019-Mar-16 08:30N 54°33' E 012°17'4 7.6
2019-Mar-16 08:00N 54°30' E 012°12'2 5.0 260 / 231002.0 5.4 2.9 5.2
2019-Mar-16 07:30N 54°28' E 012°15'4 8.8
2019-Mar-16 07:00N 54°25' E 012°10'2145.9
2019-Mar-16 07:00N 54°24' E 012°06'1 2.8 260 / 231001.8 5.5 3.0 5.2
2019-Mar-16 06:31N 54°24' E 012°04'3 5.7
2019-Mar-16 06:00N 54°24' E 011°59'3183.2
2019-Mar-16 06:00N 54°24' E 011°54'3 5.4 270 / 231001.3 5.6 2.6 5.2
2019-Mar-16 05:30N 54°24' E 011°50'2 3.7
2019-Mar-16 05:00N 54°23' E 011°47'3189.5
2019-Mar-16 05:00N 54°24' E 011°42'4 8.3 270 / 271000.8 5.2 2.7 5.2
2019-Mar-16 04:28N 54°20' E 011°38'3 5.5
2019-Mar-16 04:00N 54°18' E 011°36'7 6.9 280 / 251000.1 5.4 2.3 5.3
2019-Mar-16 03:00N 54°24' E 011°30'331.7 280 / 29999.1 5.4 2.3 5.3
2019-Mar-16 02:55N 54°22' E 011°32'511.2
2019-Mar-16 02:31N 54°26' E 011°30'2 4.9
2019-Mar-16 02:01N 54°28' E 011°29'2105.0
2019-Mar-16 02:00N 54°30' E 011°30'4 8.3 270 / 31998.5 5.4 2.2 5.3
2019-Mar-16 01:31N 54°27' E 011°26'4 7.1
2019-Mar-16 01:01N 54°25' E 011°21'2106.2
2019-Mar-16 01:00N 54°24' E 011°18'2 3.9 280 / 25997.7 5.3 1.8 5.5
2019-Mar-16 00:31N 54°25' E 011°21'0 0.4
2019-Mar-16 00:01N 54°25' E 011°21'2113.4
2019-Mar-16 00:00N 54°24' E 011°24'2 3.8 280 / 29996.5 5.5 1.5 5.4
2019-Mar-15 23:31N 54°25' E 011°21'  
Track history (hours):
 
Tides and Currents Weather Stations Pressure Air Temp Water Temp Dewpoint Dewpoint Depression Visibility Wind Speed Wind Dir Waves Ship Positions

Elisabeth Mann Borge

Last reported at 2019-Mar-25 23:29 UTC. Time now 2019-Mar-25 23:54 UTC.
Position N 55°20' E 014°27'.

Length 57 m; draft 3.8 m.

Type: Other ship. MMSI: 211601000.

Date/timePositionNaut miles runAvg speedWind from/ knotsBaromVisibWave heightAir tempDewpointWater temp
2019-Mar-25 23:29N 55°20' E 014°27'4 8.6
2019-Mar-25 23:00N 55°24' E 014°30'2 5.7 290 / 171018.6 4.0 1.7 5.0
2019-Mar-25 22:37N 55°24' E 014°34'3 6.5
2019-Mar-25 22:13N 55°26' E 014°37'1 6.5
2019-Mar-25 22:00N 55°27' E 014°39'3268.1
2019-Mar-25 22:00N 55°30' E 014°42'2 3.1 300 / 81018.5 4.8 2.2 5.0
2019-Mar-25 21:26N 55°29' E 014°44'2 5.1
2019-Mar-25 21:00N 55°30' E 014°48'1129.2 1018.4 4.6 2.1 5.0
2019-Mar-25 20:59N 55°30' E 014°49'3 6.5
2019-Mar-25 20:31N 55°31' E 014°54'3 6.0
2019-Mar-25 20:01N 55°31' E 014°59'150.8
2019-Mar-25 20:00N 55°30' E 015°00'2 4.6 1018.0 4.4 2.7 5.1
2019-Mar-25 19:30N 55°30' E 015°04'3 6.6
2019-Mar-25 19:00N 55°28' E 015°09'2155.0
2019-Mar-25 19:00N 55°30' E 015°12'3 7.1 280 / 41017.5 4.6 2.3 5.2
2019-Mar-25 18:31N 55°27' E 015°14'3 6.5
2019-Mar-25 18:01N 55°25' E 015°19'3176.7
2019-Mar-25 18:00N 55°24' E 015°24'0 0.8 290 / 101016.5 4.4 3.0 5.0
2019-Mar-25 17:30N 55°24' E 015°25'3 5.9
2019-Mar-25 17:00N 55°24' E 015°30'135.4 300 / 101015.4 4.3 3.2 5.2
2019-Mar-25 16:57N 55°23' E 015°30'3 6.5
2019-Mar-25 16:30N 55°21' E 015°35'3 6.5
2019-Mar-25 16:01N 55°20' E 015°40'2135.3
2019-Mar-25 16:00N 55°18' E 015°42'2 4.1 320 / 61014.5 4.6 3.1 5.3
2019-Mar-25 15:30N 55°19' E 015°45'5 9.8
2019-Mar-25 15:00N 55°18' E 015°54'2 7.9 330 / 81013.5 4.5 2.7 5.5
2019-Mar-25 14:47N 55°17' E 015°52'3 6.0
2019-Mar-25 14:21N 55°16' E 015°56'3 8.8
2019-Mar-25 14:00N 55°18' E 016°00'7 6.8 330 / 61012.5 4.7 2.4 5.3
2019-Mar-25 13:00N 55°18' E 016°12'7 6.8 010 / 81012.0 4.4 2.7 5.5
2019-Mar-25 12:00N 55°18' E 016°24'3 3.4 350 / 81011.5 4.4 2.9 5.4
2019-Mar-25 11:00N 55°18' E 016°30'3 3.4 320 / 41010.9 4.5 2.5 5.0
2019-Mar-25 10:00N 55°18' E 016°36'2 4.7 260 / 81010.0 4.4 2.4 4.7
2019-Mar-25 09:34N 55°17' E 016°33'0 0.5
2019-Mar-25 09:30N 55°17' E 016°33'5 9.8
2019-Mar-25 09:00N 55°12' E 016°36'2 3.4 230 / 61009.5 5.1 2.9 4.7
2019-Mar-25 08:23N 55°13' E 016°33'2 5.1
2019-Mar-25 08:00N 55°12' E 016°36'310.9 220 / 81009.2 4.0 2.5 4.6
2019-Mar-25 07:44N 55°14' E 016°33'4 5.5
2019-Mar-25 07:00N 55°18' E 016°36'2 5.8 230 / 141008.9 4.1 2.5 4.6
2019-Mar-25 06:35N 55°16' E 016°33'1 1.6
2019-Mar-25 06:11N 55°17' E 016°33'210.1
2019-Mar-25 06:00N 55°18' E 016°36'2 7.0 220 / 121008.9 4.0 2.9 4.7
2019-Mar-25 05:45N 55°18' E 016°33'1 1.6
2019-Mar-25 05:18N 55°18' E 016°33'2 5.7
2019-Mar-25 05:00N 55°18' E 016°36'2 4.4 240 / 161009.2 4.1 2.8 4.6
2019-Mar-25 04:29N 55°20' E 016°33'1 1.6
2019-Mar-25 04:00N 55°20' E 016°33'31710.5
2019-Mar-25 04:00N 55°18' E 016°36'611.4 240 / 121009.7 4.1 2.8 4.6
2019-Mar-25 03:31N 55°23' E 016°33'1 1.7
2019-Mar-25 03:00N 55°24' E 016°32'189.5
2019-Mar-25 03:00N 55°24' E 016°30'2 2.4 260 / 161009.9 4.3 2.8 4.7
2019-Mar-25 02:21N 55°23' E 016°32'1 1.6
2019-Mar-25 02:00N 55°22' E 016°32'2125.0
2019-Mar-25 02:00N 55°24' E 016°30'3 5.2 260 / 171010.7 4.5 2.5 4.7
2019-Mar-25 01:31N 55°22' E 016°32'1 1.7
2019-Mar-25 01:01N 55°21' E 016°31'3170.5
2019-Mar-25 01:00N 55°18' E 016°30'2 3.8 250 / 161011.7 4.4 2.5 4.6
2019-Mar-25 00:29N 55°20' E 016°31'1 1.7
2019-Mar-25 00:00N 55°19' E 016°31'182.8
2019-Mar-25 00:00N 55°18' E 016°30'0 0.7 250 / 161012.7 4.4 2.4 4.7
2019-Mar-24 23:30N 55°18' E 016°30'1 1.6
2019-Mar-24 23:00N 55°17' E 016°30'137.6
2019-Mar-24 23:00N 55°18' E 016°30'2 2.2 250 / 171013.8 4.3 2.6 4.7
2019-Mar-24 22:08N 55°16' E 016°30'213.8
2019-Mar-24 22:00N 55°18' E 016°30'213.3 240 / 171014.6 4.4 2.4 4.6
2019-Mar-24 21:48N 55°16' E 016°30'1 1.7
2019-Mar-24 21:31N 55°15' E 016°30'3 5.9
2019-Mar-24 21:00N 55°12' E 016°30'253.2 250 / 191015.6 4.4 2.4 4.6
2019-Mar-24 20:57N 55°14' E 016°30'1 1.6
2019-Mar-24 20:27N 55°13' E 016°30'1 1.6
2019-Mar-24 20:01N 55°13' E 016°30'134.9
2019-Mar-24 20:00N 55°12' E 016°30'0 0.7 250 / 211016.5 4.3 2.9 4.7
2019-Mar-24 19:25N 55°12' E 016°30'1 1.6
2019-Mar-24 19:01N 55°11' E 016°30'164.0
2019-Mar-24 19:00N 55°12' E 016°30'2 3.3 250 / 191017.5 4.3 3.0 4.7
2019-Mar-24 18:23N 55°10' E 016°30'1 1.6
2019-Mar-24 18:01N 55°09' E 016°30'3157.8
2019-Mar-24 18:00N 55°12' E 016°30'3 7.0 250 / 211017.9 4.4 2.9 4.7
2019-Mar-24 17:30N 55°09' E 016°30'1 1.6
2019-Mar-24 17:00N 55°08' E 016°30'2324.7
2019-Mar-24 17:00N 55°06' E 016°30'1 2.1 250 / 211018.7 4.5 3.2 4.7
2019-Mar-24 16:30N 55°07' E 016°30'917.2
2019-Mar-24 16:00N 55°12' E 016°18'460.0 240 / 161019.5 4.8 2.9 5.0
2019-Mar-24 15:56N 55°09' E 016°22'511.3
2019-Mar-24 15:29N 55°11' E 016°14'816.7
2019-Mar-24 15:00N 55°12' E 016°00'3510.1 250 / 141020.4 5.1 2.9 5.0
2019-Mar-24 14:59N 55°13' E 016°05'4 8.2
2019-Mar-24 14:30N 55°15' E 015°59'0 0.1
2019-Mar-24 14:00N 55°15' E 015°59'3206.7
2019-Mar-24 14:00N 55°18' E 016°00'3 5.0 250 / 141021.1 4.7 2.9 5.1
2019-Mar-24 13:25N 55°15' E 016°00'1 1.8
2019-Mar-24 13:00N 55°15' E 016°01'3516.1
2019-Mar-24 13:00N 55°18' E 016°00'3 6.1 250 / 141021.7 4.4 2.8 5.0
2019-Mar-24 12:29N 55°15' E 016°03'3 6.3
2019-Mar-24 12:00N 55°18' E 016°06'3124.3 270 / 161022.8 4.4 2.6 5.0
2019-Mar-24 11:58N 55°16' E 016°05'1 1.7
2019-Mar-24 11:27N 55°16' E 016°06'2 5.0
2019-Mar-24 11:00N 55°18' E 016°06'249.5 270 / 171023.1 4.2 2.3 5.0
2019-Mar-24 10:57N 55°16' E 016°08'1 1.6
2019-Mar-24 10:20N 55°16' E 016°09'1 1.6
2019-Mar-24 10:00N 55°16' E 016°10'2232.2
2019-Mar-24 10:00N 55°18' E 016°12'2 3.5 270 / 161023.6 4.2 2.0 5.0
2019-Mar-24 09:30N 55°16' E 016°12'1 1.6
2019-Mar-24 09:01N 55°16' E 016°13'299.7
2019-Mar-24 09:00N 55°18' E 016°12'2 3.9 290 / 161024.0 4.1 2.1 4.9
2019-Mar-24 08:30N 55°17' E 016°14'1 1.6
2019-Mar-24 08:00N 55°17' E 016°16'2118.0
2019-Mar-24 08:00N 55°18' E 016°18'1 2.1 290 / 171024.2 4.1 2.1 4.9
2019-Mar-24 07:25N 55°17' E 016°17'1 1.6
2019-Mar-24 07:01N 55°17' E 016°18'162.6
2019-Mar-24 07:00N 55°18' E 016°18'1 2.6 290 / 171024.3 4.2 2.1 4.9
2019-Mar-24 06:27N 55°17' E 016°20'2 5.2
2019-Mar-24 06:00N 55°18' E 016°24'2166.4 290 / 171024.4 4.2 2.0 5.0
2019-Mar-24 05:59N 55°17' E 016°21'1 1.5
2019-Mar-24 05:30N 55°17' E 016°23'1 2.0
2019-Mar-24 05:00N 55°18' E 016°24'0 5.7 290 / 191024.5 4.3 1.8 4.8
2019-Mar-24 04:55N 55°18' E 016°24'1 1.5
2019-Mar-24 04:30N 55°18' E 016°25'1 1.5
2019-Mar-24 04:01N 55°18' E 016°26'188.6
2019-Mar-24 04:00N 55°18' E 016°24'2 4.7 290 / 191024.3 4.4 1.7 4.7
2019-Mar-24 03:31N 55°17' E 016°28'1 2.8
2019-Mar-24 03:00N 55°18' E 016°30'114.7 290 / 191024.3 4.4 1.7 4.7
2019-Mar-24 02:55N 55°17' E 016°29'1 1.5
2019-Mar-24 02:28N 55°17' E 016°30'1 1.6
2019-Mar-24 01:58N 55°16' E 016°32'1 1.6
2019-Mar-24 01:30N 55°16' E 016°33'3 5.1
2019-Mar-24 01:00N 55°18' E 016°36'210.4 280 / 191024.2 4.7 1.5 4.6
2019-Mar-24 00:46N 55°16' E 016°35'0 1.7
2019-Mar-24 00:29N 55°16' E 016°36'2 4.6
2019-Mar-24 00:00N 55°18' E 016°36'272.2 270 / 191024.7 5.0 1.4 4.6
2019-Mar-23 23:57N 55°16' E 016°37'1 1.5
2019-Mar-23 23:29N 55°15' E 016°38'3 6.6
2019-Mar-23 23:00N 55°18' E 016°42'0 0.0 280 / 211024.6 5.2 1.3 4.5
2019-Mar-23 22:00N 55°18' E 016°42'7 6.9 280 / 161024.8 5.0 1.7 4.7
2019-Mar-23 21:00N 55°12' E 016°48'0 0.0 300 / 191024.7 5.5 1.3 4.6
2019-Mar-23 20:00N 55°12' E 016°48'3 3.4 280 / 191024.5 5.8 1.9 4.7
2019-Mar-23 19:00N 55°12' E 016°54'0 0.0 280 / 171024.1 5.6 2.1 4.7
2019-Mar-23 18:00N 55°12' E 016°54'0 0.0 270 / 171023.5 5.5 2.8 4.7
2019-Mar-23 17:00N 55°12' E 016°54'3 4.5 250 / 171023.3 4.9 4.2 4.7
2019-Mar-23 16:23N 55°14' E 016°58'2 5.1
2019-Mar-23 16:00N 55°12' E 017°00'0 0.0 250 / 171022.9 4.9 4.4 4.5
2019-Mar-23 15:00N 55°12' E 017°00'3 3.4 250 / 171022.9 4.8 4.5 4.6
2019-Mar-23 14:00N 55°12' E 017°06'1 4.1 250 / 191023.1 4.5 4.3 4.6
2019-Mar-23 13:38N 55°13' E 017°04'0 0.8
2019-Mar-23 13:31N 55°13' E 017°04'4 8.9
2019-Mar-23 13:00N 55°14' E 016°56'2141.9
2019-Mar-23 13:00N 55°12' E 016°54'510.5 240 / 161023.2 5.0 4.4 4.7
2019-Mar-23 12:30N 55°15' E 016°47'713.2
2019-Mar-23 12:00N 55°18' E 016°36'2165.2 250 / 171022.8 4.9 4.5 4.8
2019-Mar-23 11:59N 55°16' E 016°36'4 4.8
2019-Mar-23 11:03N 55°17' E 016°28'346.9
2019-Mar-23 11:00N 55°18' E 016°24'2 7.4 240 / 141022.7 5.0 5.0 5.0
2019-Mar-23 10:45N 55°16' E 016°23'1012.9
2019-Mar-23 10:00N 55°18' E 016°06'3 9.5 240 / 171023.2 5.0 5.0 5.0
2019-Mar-23 09:40N 55°15' E 016°03'210.6
2019-Mar-23 09:30N 55°15' E 016°00'1 1.5
2019-Mar-23 09:00N 55°15' E 015°59'3192.8
2019-Mar-23 09:00N 55°12' E 016°00'3 6.4 230 / 191022.7 5.2 5.1 5.1
2019-Mar-23 08:30N 55°15' E 015°59'5 9.6
2019-Mar-23 08:00N 55°18' E 016°06'1413.7 220 / 251023.0 5.4 5.1 4.9
2019-Mar-23 07:00N 55°18' E 016°30'3 3.4 210 / 231023.6 5.7 5.2 4.9
2019-Mar-23 06:00N 55°18' E 016°36'3 3.4 190 / 191023.9 5.8 4.9 4.6
2019-Mar-23 05:00N 55°18' E 016°42'2 9.8 210 / 191024.6 5.6 4.8 4.6
2019-Mar-23 04:50N 55°16' E 016°43'2 6.9
2019-Mar-23 04:31N 55°16' E 016°47'4 7.1
2019-Mar-23 04:00N 55°16' E 016°53'2513.2
2019-Mar-23 04:00N 55°18' E 016°54'6 7.1 200 / 171025.1 5.4 4.5 4.5
2019-Mar-23 03:11N 55°15' E 017°03'316.7
2019-Mar-23 03:00N 55°18' E 017°06'2 8.0 190 / 171025.7 5.2 3.8 4.5
2019-Mar-23 02:41N 55°16' E 017°07'1 6.0
2019-Mar-23 02:27N 55°16' E 017°10'511.8
2019-Mar-23 02:00N 55°18' E 017°18'3323.8 190 / 171026.3 5.1 2.7 4.6
2019-Mar-23 01:59N 55°15' E 017°14'4 5.0
2019-Mar-23 01:11N 55°15' E 017°21'316.8
2019-Mar-23 01:00N 55°18' E 017°24'3 8.4 190 / 211027.1 5.1 2.0 4.6
2019-Mar-23 00:39N 55°16' E 017°28'5 7.6
2019-Mar-23 00:00N 55°18' E 017°36'1010.2 180 / 161028.3 4.8 0.2 4.7
2019-Mar-22 23:00N 55°18' E 017°54'1 5.3 170 / 191028.7 4.5 1.2 4.8
2019-Mar-22 22:51N 55°18' E 017°53'1 3.0
2019-Mar-22 22:22N 55°19' E 017°56'616.0
2019-Mar-22 22:00N 55°18' E 018°06'2113.9 160 / 191029.7 4.4 1.2 4.5
2019-Mar-22 21:58N 55°19' E 018°02'6 5.8
2019-Mar-22 21:00N 55°18' E 018°12'9 9.9 150 / 191030.5 4.3 0.5 4.6
2019-Mar-22 20:02N 55°27' E 018°19'357.8
2019-Mar-22 20:00N 55°24' E 018°18'376.8 140 / 171031.1 3.9 1.1 4.6
2019-Mar-22 19:57N 55°27' E 018°19'2 4.0
2019-Mar-22 19:31N 55°28' E 018°21'510.2
2019-Mar-22 19:00N 55°33' E 018°24'3541.3
2019-Mar-22 19:00N 55°30' E 018°24'9 9.1 150 / 141031.4 3.8 1.3 4.6
2019-Mar-22 18:00N 55°36' E 018°36'3 3.3 170 / 121032.4 3.8 1.9 4.8
2019-Mar-22 17:13N 55°38' E 018°37'519.8
2019-Mar-22 17:00N 55°42' E 018°42'246.9 180 / 81032.6 3.8 2.4 4.8
2019-Mar-22 16:57N 55°41' E 018°40'4 8.6
2019-Mar-22 16:28N 55°44' E 018°46'5 9.6
2019-Mar-22 16:00N 55°48' E 018°48'213.2 140 / 81033.2 4.1 1.9 4.7
2019-Mar-22 15:52N 55°46' E 018°48'410.3
2019-Mar-22 15:29N 55°50' E 018°51'4 8.9
2019-Mar-22 15:00N 55°54' E 018°54'1 3.8 120 / 41033.9 4.2 2.1 5.2
2019-Mar-22 14:36N 55°53' E 018°56'111.7
2019-Mar-22 14:30N 55°54' E 018°58'4 8.6
2019-Mar-22 14:00N 55°57' E 019°03'3444.4
2019-Mar-22 14:00N 56°00' E 019°00'4 4.5 1034.3 5.0 1.9 5.0
2019-Mar-22 13:13N 56°01' E 018°54'211.4
2019-Mar-22 13:00N 56°03' E 018°51'4259.6
2019-Mar-22 13:00N 56°06' E 018°48'3 5.9 010 / 41034.7 4.1 2.4 4.6
2019-Mar-22 12:29N 56°07' E 018°43'918.0
2019-Mar-22 12:00N 56°12' E 018°30'1 2.7 1034.7 4.3 2.4 4.5
2019-Mar-22 11:44N 56°12' E 018°31'411.4
2019-Mar-22 11:23N 56°15' E 018°26'411.4
2019-Mar-22 11:00N 56°17' E 018°19'167.5
2019-Mar-22 11:00N 56°18' E 018°18'5 9.7 300 / 61034.9 4.2 2.4 4.0
2019-Mar-22 10:30N 56°21' E 018°11'713.7
2019-Mar-22 10:00N 56°24' E 018°00'328.8 320 / 41034.6 3.7 2.1 3.6
2019-Mar-22 09:54N 56°26' E 018°03'511.5
2019-Mar-22 09:28N 56°30' E 017°58'816.9
2019-Mar-22 09:00N 56°36' E 017°48'3 6.5 340 / 61034.0 3.5 2.2 3.6
2019-Mar-22 08:35N 56°39' E 017°48'1219.2
2019-Mar-22 08:00N 56°48' E 017°36'4 5.3 010 / 61034.0 4.0 2.3 4.0
2019-Mar-22 07:16N 56°51' E 017°32'413.6
2019-Mar-22 07:00N 56°54' E 017°36'1212.4 320 / 121033.1 3.4 2.3 3.8
2019-Mar-22 06:00N 57°06' E 017°42'7 6.8 300 / 81032.1 3.1 2.1 3.4
2019-Mar-22 05:00N 57°12' E 017°36'1212.0 300 / 81031.4 2.8 2.1 3.4
2019-Mar-22 04:00N 57°24' E 017°36'7 6.8 360 / 61030.0 3.2 2.0 3.4
2019-Mar-22 03:00N 57°30' E 017°42'1212.4 310 / 61029.5 3.2 2.2 3.3
2019-Mar-22 02:00N 57°42' E 017°48'1212.4 290 / 81028.3 3.0 2.1 3.4
2019-Mar-22 01:00N 57°54' E 017°54'7 6.8 320 / 61027.2 3.1 2.0 3.4
2019-Mar-22 00:00N 58°00' E 018°00'7 6.8 030 / 81026.1 3.6 2.0 3.6
2019-Mar-21 23:00N 58°06' E 018°06'9 8.7 030 / 161024.6 4.0 2.1 3.5
2019-Mar-21 22:00N 58°12' E 018°18'1413.6 020 / 271022.7 4.2 2.4 3.2
2019-Mar-21 21:00N 58°24' E 018°30'9 8.7 290 / 271020.4 5.5 3.9 2.8
2019-Mar-21 20:00N 58°30' E 018°42'1515.2 290 / 191018.8 5.2 3.6 2.8
2019-Mar-21 19:00N 58°42' E 019°00'7 6.8 290 / 161017.7 4.2 2.8 2.7
2019-Mar-21 18:00N 58°48' E 019°06'6 6.2 300 / 161017.0 4.6 3.0 2.5
2019-Mar-21 17:00N 58°48' E 019°18'1111.1 290 / 171015.1 5.5 3.3 2.5
2019-Mar-21 16:00N 58°54' E 019°36'1111.1 280 / 141014.3 4.0 2.7 2.6
2019-Mar-21 15:00N 59°00' E 019°54'9 9.3 250 / 141013.8 4.0 2.8 3.2
2019-Mar-21 14:00N 59°00' E 020°12'7 6.8 240 / 231013.7 4.3 3.0 3.0
2019-Mar-21 13:00N 58°54' E 020°18'6 6.0 240 / 231014.5 4.1 3.0 3.2
2019-Mar-21 12:00N 58°48' E 020°18'6 6.0 230 / 211015.6 3.9 3.0 3.4
2019-Mar-21 11:00N 58°42' E 020°18'6 6.0 230 / 271016.5 4.1 2.7 3.4
2019-Mar-21 10:00N 58°36' E 020°18'1212.0 240 / 231017.1 3.7 2.3 3.4
2019-Mar-21 09:00N 58°24' E 020°18'3 3.1 240 / 211018.0 3.8 2.1 3.2
2019-Mar-21 08:00N 58°24' E 020°12'7 6.8 240 / 211019.4 3.8 2.0 3.1
2019-Mar-21 07:00N 58°18' E 020°06'6 6.0 240 / 171020.0 3.6 1.6 3.3
2019-Mar-21 06:00N 58°12' E 020°06'1413.6 250 / 211020.4 3.7 1.5 3.1
2019-Mar-21 05:00N 58°00' E 019°54'0 0.0 250 / 141020.8 3.4 1.7 3.1
2019-Mar-21 04:00N 58°00' E 019°54'6 6.0 250 / 121021.2 3.4 1.5 3.3
2019-Mar-21 03:00N 57°54' E 019°54'3 3.2 270 / 161021.4 3.6 1.6 3.1
2019-Mar-21 02:00N 57°54' E 019°48'1212.4 270 / 161021.8 3.6 1.6 3.2
2019-Mar-21 01:00N 57°42' E 019°54'9 8.8 270 / 141022.3 3.8 2.2 3.3
2019-Mar-21 00:00N 57°36' E 020°06'3 3.2 270 / 161022.5 4.0 2.4 3.5
2019-Mar-20 23:00N 57°36' E 020°12'7 6.8 260 / 171022.2 4.0 2.7 4.0
2019-Mar-20 22:00N 57°30' E 020°18'7 6.8 260 / 171022.0 4.2 2.7 4.1
2019-Mar-20 21:00N 57°24' E 020°24'9 8.8 280 / 161022.0 4.5 3.0 4.0
2019-Mar-20 20:00N 57°18' E 020°36'9 8.8 280 / 191021.5 4.4 3.1 4.1
2019-Mar-20 19:00N 57°12' E 020°48'7 6.5 270 / 211020.8 4.3 3.1 4.0
2019-Mar-20 18:00N 57°12' E 021°00'7 6.8 260 / 231020.3 4.0 3.0 4.0
2019-Mar-20 17:00N 57°06' E 021°06'0 0.0 260 / 311019.9 3.8 2.9 3.7
2019-Mar-20 16:00N 57°06' E 021°06'3 3.3 250 / 291019.7 3.4 2.9 3.7
2019-Mar-20 15:00N 57°06' E 021°00'7 6.5 230 / 311019.8 3.4 2.7 4.0
2019-Mar-20 14:00N 57°06' E 020°48'9 8.9 220 / 331019.4 3.3 2.4 4.1
2019-Mar-20 13:00N 57°12' E 020°36'3 3.3 220 / 291020.5 3.7 1.5 4.1
2019-Mar-20 12:00N 57°12' E 020°30'9 8.8 220 / 271021.4 3.6 1.6 4.1
2019-Mar-20 11:00N 57°18' E 020°18'6 6.5 230 / 271021.5 3.6 1.6 4.1
2019-Mar-20 10:00N 57°18' E 020°06'3 3.2 230 / 251022.2 3.4 1.1 3.9
2019-Mar-20 09:00N 57°18' E 020°00'9 8.8 220 / 251022.5 3.5 0.3 3.9
2019-Mar-20 08:00N 57°24' E 019°48'6 6.5 220 / 211022.6 3.4-0.0 3.9
2019-Mar-20 07:00N 57°24' E 019°36'6 6.5 220 / 171022.7 3.2-0.1 3.5
2019-Mar-20 06:00N 57°24' E 019°24'0 0.0 230 / 171023.1 2.8-0.3 3.5
2019-Mar-20 05:00N 57°24' E 019°24'7 6.8 230 / 171023.0 3.0-0.0 3.5
2019-Mar-20 04:00N 57°18' E 019°18'7 6.8 240 / 141023.5 2.7-0.2 3.8
2019-Mar-20 03:00N 57°12' E 019°12'9 8.9 260 / 141024.0 2.8-0.2 3.6
2019-Mar-20 02:00N 57°06' E 019°00'9 8.9 260 / 141024.2 2.8-0.4 3.8
2019-Mar-20 01:00N 57°00' E 019°12'7 6.5 260 / 121024.5 3.1-0.2 3.7
2019-Mar-20 00:00N 57°00' E 019°24'3 3.3 260 / 101024.3 3.0 0.2 3.8
2019-Mar-19 23:00N 57°00' E 019°30'7 6.5 260 / 101023.9 3.1 0.2 3.7
2019-Mar-19 22:00N 57°00' E 019°42'3 3.3 260 / 121023.8 3.0 0.3 3.7
2019-Mar-19 21:00N 57°00' E 019°48'9 8.9 260 / 121023.3 2.8 0.2 3.7
2019-Mar-19 20:00N 56°54' E 020°00'3 3.3 250 / 101023.1 2.8 0.1 3.9
2019-Mar-19 19:00N 56°54' E 020°06'7 6.6 270 / 81022.6 2.5-1.1 4.2
2019-Mar-19 18:00N 56°54' E 020°18'7 6.6 320 / 101021.8 2.3-1.7 4.2
2019-Mar-19 17:00N 56°54' E 020°30'9 8.9 310 / 171021.1 2.0-2.7 4.2
2019-Mar-19 16:00N 56°48' E 020°42'1212.4 300 / 171020.2 1.9-1.9 4.2
2019-Mar-19 15:00N 57°00' E 020°36'7 6.8 300 / 171019.5 1.5-0.3 4.2
2019-Mar-19 14:00N 57°06' E 020°30'1212.4 310 / 171018.5 2.0-0.8 3.9
2019-Mar-19 13:00N 57°18' E 020°24'7 6.8 320 / 211017.3 1.8-1.0 4.0
2019-Mar-19 12:00N 57°24' E 020°18'0 0.0 320 / 191016.4 1.7-0.7 4.0
2019-Mar-19 11:00N 57°24' E 020°18'0 0.0 320 / 211015.5 1.6-0.5 4.0
2019-Mar-19 10:00N 57°24' E 020°18'1111.4 320 / 231014.0 1.9-0.0 3.9
2019-Mar-19 09:00N 57°18' E 020°00'3 3.2 320 / 211013.2 1.5-0.0 4.0
2019-Mar-19 08:00N 57°18' E 020°06'0 0.0 320 / 191011.9 1.2-0.0 4.0
2019-Mar-19 07:00N 57°18' E 020°06'9 8.8 320 / 191010.9 1.3-0.0 4.0
2019-Mar-19 06:00N 57°12' E 019°54'6 6.0 320 / 171010.3 1.1-0.1 3.9
2019-Mar-19 05:00N 57°06' E 019°54'3 3.3 310 / 231009.4 1.6-0.4 4.0
2019-Mar-19 04:00N 57°06' E 019°48'1212.4 300 / 211008.5 1.9-0.4 4.0
2019-Mar-19 03:00N 56°54' E 019°54'7 6.8 300 / 171008.2 1.4-0.9 3.9
2019-Mar-19 02:00N 56°48' E 019°48'3 3.3 300 / 211007.4 2.1-0.2 3.9
2019-Mar-19 01:00N 56°48' E 019°42'1212.4 290 / 171006.8 2.6 0.3 3.8
2019-Mar-19 00:00N 56°36' E 019°36'7 6.9 300 / 161006.3 2.5 0.4 4.1
2019-Mar-18 23:00N 56°30' E 019°30'7 6.9 300 / 211005.6 3.1 0.4 4.3
2019-Mar-18 22:00N 56°24' E 019°24'6 6.0 290 / 191005.1 3.5 0.6 4.1
2019-Mar-18 21:00N 56°18' E 019°24'7 6.9 290 / 211004.3 3.7 0.4 4.2
2019-Mar-18 20:00N 56°12' E 019°18'7 6.9 250 / 211003.8 3.8 2.0 4.1
2019-Mar-18 19:00N 56°06' E 019°12'0 0.0 250 / 271003.2 4.2 1.7 4.4
2019-Mar-18 18:00N 56°06' E 019°12'3 3.3 230 / 251002.4 4.2 2.1 4.4
2019-Mar-18 17:00N 56°06' E 019°06'7 6.9 230 / 231001.9 5.4 2.6 4.5
2019-Mar-18 16:00N 56°00' E 019°00'9 9.0 230 / 271001.1 4.6 2.2 4.4
2019-Mar-18 15:00N 55°54' E 018°48'3 3.4 230 / 271000.6 4.9 2.1 4.2
2019-Mar-18 14:00N 55°54' E 018°42'9 9.0 220 / 351000.3 4.5 2.0 4.3
2019-Mar-18 13:00N 55°48' E 018°30'9 9.0 220 / 331000.4 4.2 2.0 4.3
2019-Mar-18 12:00N 55°42' E 018°18'9 9.0 220 / 331000.4 4.4 1.8 4.4
2019-Mar-18 11:00N 55°36' E 018°06'9 9.1 230 / 371000.1 4.8 1.2 4.3
2019-Mar-18 10:00N 55°30' E 017°54'7 6.9 230 / 37999.3 4.8 1.0 4.3
2019-Mar-18 09:00N 55°24' E 017°48'7 6.8 220 / 33999.3 4.8 1.0 4.4
2019-Mar-18 08:00N 55°24' E 017°36'7 6.9 220 / 33999.4 4.4 1.0 4.3
2019-Mar-18 07:00N 55°18' E 017°30'9 9.1 220 / 33999.2 4.4 0.8 4.3
2019-Mar-18 06:00N 55°12' E 017°18'7 6.9 220 / 31999.2 4.3 1.0 4.3
2019-Mar-18 05:00N 55°18' E 017°24'0 0.0 220 / 33998.7 4.4 1.3 4.3
2019-Mar-18 04:00N 55°18' E 017°24'7 6.9 220 / 29998.7 4.4 1.1 4.3
2019-Mar-18 03:00N 55°12' E 017°18'7 6.8 220 / 33998.8 4.4 1.4 4.4
2019-Mar-18 02:00N 55°12' E 017°06'7 6.8 220 / 33998.3 4.6 1.7 4.4
2019-Mar-18 01:00N 55°12' E 016°54'3 3.4 220 / 29998.6 4.6 2.3 4.7
2019-Mar-18 00:00N 55°12' E 016°48'9 9.1 220 / 29998.7 4.8 2.0 4.7
2019-Mar-17 23:00N 55°18' E 016°36'7 6.8 230 / 31997.9 5.1 1.4 4.7
2019-Mar-17 22:00N 55°18' E 016°24'3 3.4 230 / 25997.3 5.1 1.8 4.6
2019-Mar-17 21:00N 55°18' E 016°18'7 6.9 220 / 23997.7 5.0 2.9 4.7
2019-Mar-17 20:00N 55°12' E 016°12'9 9.1 220 / 23997.5 5.1 2.9 4.7
2019-Mar-17 19:00N 55°18' E 016°00'0 0.0 220 / 21996.7 5.0 3.0 4.7
2019-Mar-17 18:00N 55°18' E 016°00'0 0.0 210 / 19996.2 5.1 2.7 4.7
2019-Mar-17 17:00N 55°18' E 016°00'7 6.9 220 / 23996.0 5.3 2.9 4.7
2019-Mar-17 16:00N 55°12' E 015°54'8 8.6 230 / 23995.5 5.0 2.9 4.7
2019-Mar-17 15:03N 55°10' E 015°40'245.4
2019-Mar-17 15:00N 55°12' E 015°42'3702.1 230 / 19995.1 5.0 3.0 4.8
2019-Mar-17 14:59N 55°10' E 015°39'4 5.0
2019-Mar-17 14:14N 55°13' E 015°43'624.8
2019-Mar-17 14:00N 55°18' E 015°48'0 0.3 220 / 19993.9 4.9 3.3 4.7
2019-Mar-17 13:32N 55°18' E 015°48'0 0.2
2019-Mar-17 13:30N 55°18' E 015°48'3 5.7
2019-Mar-17 13:00N 55°19' E 015°43'175.3
2019-Mar-17 13:00N 55°18' E 015°42'3 7.1 240 / 19993.6 5.2 3.5 4.7
2019-Mar-17 12:31N 55°20' E 015°37'3 6.3
2019-Mar-17 12:00N 55°20' E 015°31'3246.2
2019-Mar-17 12:00N 55°18' E 015°30'3 6.4 250 / 23992.9 5.9 3.7 4.7
2019-Mar-17 11:31N 55°21' E 015°28'5 9.9
2019-Mar-17 11:01N 55°23' E 015°20'292.5
2019-Mar-17 11:00N 55°24' E 015°18'1 1.1 210 / 23991.3 7.3 3.7 4.7
2019-Mar-17 10:30N 55°24' E 015°19'4 8.6
2019-Mar-17 10:01N 55°27' E 015°14'3181.0
2019-Mar-17 10:00N 55°30' E 015°12'2 3.8 210 / 27990.9 7.2 3.7 4.7
2019-Mar-17 09:31N 55°28' E 015°11'4 7.3
2019-Mar-17 09:00N 55°30' E 015°06'023.4
2019-Mar-17 09:00N 55°30' E 015°06'2 4.1 210 / 29990.6 7.0 3.7 4.7
2019-Mar-17 08:30N 55°30' E 015°03'5 9.1
2019-Mar-17 08:00N 55°32' E 014°55'1 2.2
2019-Mar-17 07:31N 55°31' E 014°53'612.5
2019-Mar-17 07:00N 55°30' E 014°42'7 6.9 200 / 27990.3 6.3 3.7 4.6
2019-Mar-17 06:00N 55°24' E 014°36'7 6.9 200 / 31990.4 5.9 3.9 4.6
2019-Mar-17 05:00N 55°18' E 014°30'2 2.4 200 / 29991.2 6.1 4.0 4.6
2019-Mar-17 04:17N 55°16' E 014°31'1 4.0
2019-Mar-17 04:01N 55°15' E 014°30'3155.2
2019-Mar-17 04:00N 55°18' E 014°30'4 8.4 200 / 27991.6 6.3 4.1 4.6
2019-Mar-17 03:30N 55°14' E 014°28'611.1
2019-Mar-17 03:00N 55°11' E 014°19'1100.3
2019-Mar-17 03:00N 55°12' E 014°18'3 5.4 200 / 25992.5 6.1 4.3 4.7
2019-Mar-17 02:30N 55°10' E 014°15'4 8.5
2019-Mar-17 02:00N 55°06' E 014°12'265.6 200 / 21993.5 5.8 4.4 4.6
2019-Mar-17 01:58N 55°08' E 014°14'711.3
2019-Mar-17 01:18N 55°01' E 014°07'2 5.4
2019-Mar-17 01:00N 55°00' E 014°05'1161.1
2019-Mar-17 01:00N 55°00' E 014°06'1 1.0 200 / 19994.1 5.7 5.1 4.7
2019-Mar-17 00:26N 55°00' E 014°05'715.0
2019-Mar-17 00:00N 55°06' E 014°00'7 6.9 200 / 23994.5 5.7 5.2 4.7
2019-Mar-16 23:00N 55°06' E 013°48'9 9.1 200 / 23995.0 5.3 4.7 4.7
2019-Mar-16 22:00N 55°00' E 013°36'7 6.9 190 / 23995.7 4.9 4.2 4.7
2019-Mar-16 21:00N 55°00' E 013°48'7 6.9 180 / 21996.6 4.2 3.6 4.7
2019-Mar-16 20:00N 54°54' E 013°54'6 6.0 170 / 21997.9 3.9 3.1 4.6
2019-Mar-16 19:00N 54°48' E 013°54'3 3.5 180 / 23999.4 3.8 2.7 4.7
2019-Mar-16 18:00N 54°48' E 013°48'7 6.9 180 / 191000.1 4.0 2.4 4.8
2019-Mar-16 17:00N 54°48' E 013°36'7 6.9 210 / 191000.6 4.1 2.0 4.8
2019-Mar-16 16:00N 54°54' E 013°30'3 3.5 240 / 171000.9 4.8 2.1 4.7
2019-Mar-16 15:00N 54°54' E 013°24'9 9.2 230 / 161001.3 5.1 2.6 4.7
2019-Mar-16 14:00N 54°48' E 013°12'7 6.9 230 / 171001.5 5.0 2.8 4.8
2019-Mar-16 13:00N 54°48' E 013°00'9 9.2 240 / 191001.8 5.0 3.1 4.7
2019-Mar-16 12:00N 54°42' E 012°48'3 3.5 240 / 171002.1 5.2 3.2 5.0
2019-Mar-16 11:00N 54°42' E 012°42'9 8.9 260 / 191002.3 6.9 3.3 5.1
2019-Mar-16 10:00N 54°39' E 012°27'3483.8
2019-Mar-16 10:00N 54°42' E 012°30'5 9.3 260 / 211002.3 5.7 2.7 5.2
2019-Mar-16 09:30N 54°38' E 012°26'510.8
2019-Mar-16 09:01N 54°34' E 012°19'296.7
2019-Mar-16 09:00N 54°36' E 012°18'3 6.8 250 / 211002.2 5.6 3.1 5.2
2019-Mar-16 08:30N 54°33' E 012°17'4 7.6
2019-Mar-16 08:00N 54°30' E 012°12'2 5.0 260 / 231002.0 5.4 2.9 5.2
2019-Mar-16 07:30N 54°28' E 012°15'4 8.8
2019-Mar-16 07:00N 54°25' E 012°10'2145.9
2019-Mar-16 07:00N 54°24' E 012°06'1 2.8 260 / 231001.8 5.5 3.0 5.2
2019-Mar-16 06:31N 54°24' E 012°04'3 5.7
2019-Mar-16 06:00N 54°24' E 011°59'3183.2
2019-Mar-16 06:00N 54°24' E 011°54'3 5.4 270 / 231001.3 5.6 2.6 5.2
2019-Mar-16 05:30N 54°24' E 011°50'2 3.7
2019-Mar-16 05:00N 54°23' E 011°47'3189.5
2019-Mar-16 05:00N 54°24' E 011°42'4 8.3 270 / 271000.8 5.2 2.7 5.2
2019-Mar-16 04:28N 54°20' E 011°38'3 5.5
2019-Mar-16 04:00N 54°18' E 011°36'7 6.9 280 / 251000.1 5.4 2.3 5.3
2019-Mar-16 03:00N 54°24' E 011°30'331.7 280 / 29999.1 5.4 2.3 5.3
2019-Mar-16 02:55N 54°22' E 011°32'511.2
2019-Mar-16 02:31N 54°26' E 011°30'2 4.9
2019-Mar-16 02:01N 54°28' E 011°29'2105.0
2019-Mar-16 02:00N 54°30' E 011°30'4 8.3 270 / 31998.5 5.4 2.2 5.3
2019-Mar-16 01:31N 54°27' E 011°26'4 7.1
2019-Mar-16 01:01N 54°25' E 011°21'2106.2
2019-Mar-16 01:00N 54°24' E 011°18'2 3.9 280 / 25997.7 5.3 1.8 5.5
2019-Mar-16 00:31N 54°25' E 011°21'0 0.4
2019-Mar-16 00:01N 54°25' E 011°21'2113.4
2019-Mar-16 00:00N 54°24' E 011°24'2 3.8 280 / 29996.5 5.5 1.5 5.4
2019-Mar-15 23:31N 54°25' E 011°21'  

Dump ship's entire track history